Terminal Aerodrome Forecast
Issued by NWS

Home | Current Version | Previous Version | Text Only | Print | Product List | Glossary On
Versions: 1 2 3 4 5 6 7 8 9 10 11 12 13 14 15 16 17
842
FTUS44 KLZK 271507 AAB
TAFHRO
TAF AMD
KHRO 271507Z 2715/2812 17009KT P6SM SCT025 BKN050
     FM271800 18010G18KT P6SM VCSH BKN050 BKN250
     FM280200 19010G16KT P6SM VCTS SCT025 OVC050CB
      TEMPO 2802/2806 VRB20G40KT 2SM TSRA BR OVC010CB
     FM280600 27006KT P6SM OVC015=

USA.gov is the U.S. government's official web portal to all federal, state and local government web resources and services.